createdAt,value
2023-05-21T00:00:15.637Z,8.30
2023-05-21T00:02:59.565Z,8.35
2023-05-21T00:05:37.724Z,7.32
2023-05-21T00:08:08.156Z,7.22
2023-05-21T00:10:39.359Z,7.32
2023-05-21T00:13:09.126Z,7.97
2023-05-21T00:15:45.221Z,6.93
2023-05-21T00:18:22.912Z,7.63
2023-05-21T00:20:52.041Z,8.10
2023-05-21T00:23:22.401Z,7.30
2023-05-21T00:25:51.873Z,6.85
2023-05-21T00:28:20.030Z,8.13
2023-05-21T00:30:50.005Z,6.65
2023-05-21T00:33:18.137Z,7.32
2023-05-21T00:35:48.587Z,8.32
2023-05-21T00:38:27.938Z,7.57
2023-05-21T00:41:00.535Z,7.72
2023-05-21T00:43:29.830Z,7.53
2023-05-21T00:46:01.425Z,7.38
2023-05-21T00:48:29.882Z,7.65
2023-05-21T00:51:00.213Z,6.45
2023-05-21T00:53:35.047Z,7.45
2023-05-21T00:56:05.518Z,6.85
2023-05-21T00:58:37.171Z,7.55
2023-05-21T01:01:07.069Z,6.97
2023-05-21T01:03:41.497Z,7.03
2023-05-21T01:06:14.440Z,6.53
2023-05-21T01:08:46.735Z,6.95
2023-05-21T01:11:35.905Z,6.93
2023-05-21T01:14:18.067Z,7.05
2023-05-21T01:16:54.694Z,6.70
2023-05-21T01:19:25.436Z,7.03
2023-05-21T01:21:57.354Z,7.28
2023-05-21T01:24:28.357Z,7.07
2023-05-21T01:26:59.557Z,6.78
2023-05-21T01:29:27.653Z,5.90
2023-05-21T01:32:10.771Z,6.97
2023-05-21T01:35:00.386Z,7.18
2023-05-21T01:37:32.581Z,6.97
2023-05-21T01:40:11.842Z,6.93
2023-05-21T01:42:56.294Z,7.10
2023-05-21T01:45:26.530Z,7.28
2023-05-21T01:47:59.777Z,7.30
2023-05-21T01:50:28.475Z,6.38
2023-05-21T01:52:58.747Z,6.90
2023-05-21T01:55:34.663Z,6.15
2023-05-21T01:58:12.177Z,7.40
2023-05-21T02:00:42.543Z,6.60
2023-05-21T02:03:15.131Z,7.10
2023-05-21T02:05:45.437Z,6.68
2023-05-21T02:08:15.328Z,6.38
2023-05-21T02:10:58.468Z,6.90
2023-05-21T02:13:27.038Z,6.50
2023-05-21T02:16:01.836Z,7.45
2023-05-21T02:18:43.553Z,7.70
2023-05-21T02:21:15.793Z,6.72
2023-05-21T02:23:43.954Z,7.78
2023-05-21T02:26:13.642Z,6.72
2023-05-21T02:28:41.897Z,7.57
2023-05-21T02:31:15.896Z,7.05
2023-05-21T02:33:46.445Z,7.40
2023-05-21T02:36:18.901Z,6.60
2023-05-21T02:38:47.807Z,7.00
2023-05-21T02:41:32.399Z,7.15
2023-05-21T02:44:27.270Z,7.40
2023-05-21T02:46:55.401Z,7.65
2023-05-21T02:49:23.577Z,7.68
2023-05-21T02:51:51.754Z,7.15
2023-05-21T02:54:36.879Z,6.38
2023-05-21T02:57:06.898Z,6.32
2023-05-21T02:59:40.923Z,7.72
2023-05-21T03:02:10.661Z,7.35
2023-05-21T03:04:46.433Z,7.43
2023-05-21T03:07:15.239Z,7.57
2023-05-21T03:09:45.501Z,6.78
2023-05-21T03:12:15.263Z,7.18
2023-05-21T03:14:44.184Z,6.65
2023-05-21T03:17:14.129Z,6.70
2023-05-21T03:19:52.553Z,6.57
2023-05-21T03:22:21.768Z,7.43
2023-05-21T03:24:49.850Z,6.88
2023-05-21T03:27:19.315Z,7.38
2023-05-21T03:29:55.170Z,7.15
2023-05-21T03:32:26.927Z,7.43
2023-05-21T03:34:58.655Z,7.15
2023-05-21T03:37:26.869Z,6.78
2023-05-21T03:39:55.031Z,6.88
2023-05-21T03:42:24.490Z,7.50
2023-05-21T03:45:14.237Z,7.45
2023-05-21T03:47:48.812Z,7.38
2023-05-21T03:50:23.218Z,7.43
2023-05-21T03:53:01.021Z,7.03
2023-05-21T03:55:37.265Z,7.20
2023-05-21T03:58:06.913Z,6.97
2023-05-21T04:00:37.457Z,6.25
2023-05-21T04:03:12.545Z,7.25
2023-05-21T04:05:50.925Z,6.85
2023-05-21T04:08:26.302Z,6.32
2023-05-21T04:11:00.296Z,6.55
2023-05-21T04:13:35.040Z,6.28
2023-05-21T04:16:03.693Z,8.10
2023-05-21T04:18:31.869Z,7.28
2023-05-21T04:21:00.861Z,7.20
2023-05-21T04:23:36.811Z,7.90
2023-05-21T04:26:07.761Z,7.07
2023-05-21T04:28:42.034Z,6.35
2023-05-21T04:31:13.046Z,6.63
2023-05-21T04:33:42.177Z,6.75
2023-05-21T04:36:13.787Z,7.05
2023-05-21T04:38:42.072Z,7.10
2023-05-21T04:41:10.998Z,6.72
2023-05-21T04:43:44.121Z,7.13
2023-05-21T04:46:14.819Z,6.50
2023-05-21T04:48:47.456Z,8.30
2023-05-21T04:51:24.664Z,6.93
2023-05-21T04:53:53.976Z,7.30
2023-05-21T04:56:22.968Z,7.20
2023-05-21T04:59:09.867Z,6.97
2023-05-21T05:01:39.990Z,6.90
2023-05-21T05:04:10.489Z,7.28
2023-05-21T05:06:41.257Z,7.13
2023-05-21T05:09:27.915Z,7.60
2023-05-21T05:12:00.566Z,7.25
2023-05-21T05:14:33.013Z,6.47
2023-05-21T05:17:09.958Z,6.45
2023-05-21T05:19:45.826Z,7.82
2023-05-21T05:22:16.150Z,7.22
2023-05-21T05:24:45.361Z,7.60
2023-05-21T05:27:38.757Z,7.10
2023-05-21T05:30:12.228Z,7.18
2023-05-21T05:32:43.482Z,6.32
2023-05-21T05:35:11.801Z,7.35
2023-05-21T05:37:44.147Z,7.43
2023-05-21T05:40:20.324Z,6.88
2023-05-21T05:43:04.317Z,7.78
2023-05-21T05:45:52.542Z,7.85
2023-05-21T05:48:51.892Z,7.70
2023-05-21T05:51:38.355Z,7.28
2023-05-21T05:54:22.274Z,7.40
2023-05-21T05:56:50.456Z,7.93
2023-05-21T05:59:18.616Z,7.93
2023-05-21T06:01:52.441Z,7.90
2023-05-21T06:04:30.214Z,8.00
2023-05-21T06:07:07.106Z,7.90
2023-05-21T06:09:40.695Z,8.73
2023-05-21T06:12:14.771Z,7.53
2023-05-21T06:14:51.284Z,7.72
2023-05-21T06:17:35.704Z,7.63
2023-05-21T06:20:06.047Z,7.93
2023-05-21T06:22:39.509Z,7.85
2023-05-21T06:25:13.566Z,7.97
2023-05-21T06:27:55.120Z,7.63
2023-05-21T06:30:24.346Z,7.88
2023-05-21T06:33:13.004Z,7.65
2023-05-21T06:35:41.223Z,8.00
2023-05-21T06:38:17.610Z,8.30
2023-05-21T06:40:55.016Z,7.80
2023-05-21T06:43:25.934Z,8.50
2023-05-21T06:45:54.146Z,7.50
2023-05-21T06:48:23.699Z,7.72
2023-05-21T06:50:52.702Z,8.25
2023-05-21T06:53:22.636Z,8.27
2023-05-21T06:55:58.687Z,7.47
2023-05-21T06:58:31.155Z,8.68
2023-05-21T07:01:02.351Z,8.20
2023-05-21T07:03:31.989Z,8.57
2023-05-21T07:06:00.345Z,8.70
2023-05-21T07:08:29.365Z,8.55
2023-05-21T07:10:59.680Z,8.48
2023-05-21T07:13:31.830Z,8.43
2023-05-21T07:16:04.165Z,8.88
2023-05-21T07:18:34.773Z,8.70
2023-05-21T07:21:02.984Z,8.80
2023-05-21T07:23:37.029Z,8.73
2023-05-21T07:26:06.327Z,8.18
2023-05-21T07:28:34.447Z,8.40
2023-05-21T07:31:03.016Z,7.40
2023-05-21T07:33:32.206Z,9.02
2023-05-21T07:36:03.808Z,8.35
2023-05-21T07:38:31.978Z,7.78
2023-05-21T07:41:00.161Z,8.18
2023-05-21T07:43:28.297Z,8.25
2023-05-21T07:45:56.661Z,7.43
2023-05-21T07:48:32.058Z,7.43
2023-05-21T07:51:09.534Z,7.05
2023-05-21T07:53:39.823Z,6.68
2023-05-21T07:56:18.797Z,6.13
2023-05-21T07:58:50.782Z,6.53
2023-05-21T08:01:29.570Z,5.90
2023-05-21T08:04:05.810Z,6.65
2023-05-21T08:06:37.738Z,6.82
2023-05-21T08:09:06.430Z,6.75
2023-05-21T08:11:34.828Z,6.32
2023-05-21T08:14:04.853Z,6.20
2023-05-21T08:16:35.176Z,6.53
2023-05-21T08:19:09.081Z,6.70
2023-05-21T08:21:38.570Z,6.20
2023-05-21T08:24:08.270Z,7.25
2023-05-21T08:26:36.922Z,6.63
2023-05-21T08:29:09.223Z,6.55
2023-05-21T08:31:41.422Z,6.25
2023-05-21T08:34:09.674Z,6.78
2023-05-21T08:36:43.242Z,6.45
2023-05-21T08:39:18.454Z,6.07
2023-05-21T08:41:49.842Z,6.30
2023-05-21T08:44:38.998Z,7.13
2023-05-21T08:47:11.070Z,6.80
2023-05-21T08:49:48.068Z,5.95
2023-05-21T08:52:26.852Z,6.43
2023-05-21T08:55:01.798Z,6.70
2023-05-21T08:57:39.598Z,6.10
2023-05-21T09:00:18.688Z,6.70
2023-05-21T09:02:50.046Z,6.78
2023-05-21T09:05:30.772Z,6.28
2023-05-21T09:08:08.085Z,6.28
2023-05-21T09:10:39.991Z,6.35
2023-05-21T09:13:10.005Z,6.78
2023-05-21T09:15:42.734Z,5.57
2023-05-21T09:18:13.561Z,5.40
2023-05-21T09:20:44.141Z,5.13
2023-05-21T09:23:16.895Z,5.07
2023-05-21T09:25:47.790Z,5.35
2023-05-21T09:28:18.107Z,5.20
2023-05-21T09:30:49.272Z,5.43
2023-05-21T09:33:27.169Z,4.75
2023-05-21T09:35:55.696Z,4.95
2023-05-21T09:38:27.191Z,5.32
2023-05-21T09:40:58.022Z,5.50
2023-05-21T09:43:43.218Z,4.97
2023-05-21T09:46:11.938Z,5.15
2023-05-21T09:48:49.114Z,5.85
2023-05-21T09:51:18.262Z,6.07
2023-05-21T09:53:51.421Z,5.78
2023-05-21T09:56:24.889Z,4.82
2023-05-21T09:58:55.750Z,4.95
2023-05-21T10:01:28.616Z,4.72
2023-05-21T10:03:59.216Z,4.55
2023-05-21T10:06:29.002Z,4.20
2023-05-21T10:09:03.905Z,5.00
2023-05-21T10:11:43.507Z,4.63
2023-05-21T10:14:16.664Z,4.80
2023-05-21T10:16:46.313Z,4.10
2023-05-21T10:19:15.854Z,4.57
2023-05-21T10:21:45.013Z,5.05
2023-05-21T10:24:19.515Z,4.95
2023-05-21T10:26:55.116Z,5.55
2023-05-21T10:29:44.982Z,5.93
2023-05-21T10:32:25.268Z,5.80
2023-05-21T10:34:55.607Z,6.32
2023-05-21T10:37:26.586Z,5.85
2023-05-21T10:39:56.541Z,5.45
2023-05-21T10:42:48.749Z,6.07
2023-05-21T10:45:24.689Z,5.20
2023-05-21T10:48:05.164Z,4.65
2023-05-21T10:50:47.854Z,4.15
2023-05-21T10:53:24.049Z,3.28
2023-05-21T10:56:12.358Z,3.20
2023-05-21T10:59:01.966Z,3.20
2023-05-21T11:01:34.729Z,3.25
2023-05-21T11:04:07.101Z,3.17
2023-05-21T11:06:36.575Z,2.80
2023-05-21T11:09:13.632Z,2.90
2023-05-21T11:11:44.988Z,3.03
2023-05-21T11:14:32.658Z,3.13
2023-05-21T11:17:03.896Z,2.83
2023-05-21T11:19:47.200Z,2.63
2023-05-21T11:22:28.775Z,2.80
2023-05-21T11:25:05.986Z,2.72
2023-05-21T11:27:38.618Z,2.78
2023-05-21T11:30:08.715Z,2.60
2023-05-21T11:33:19.026Z,2.45
2023-05-21T11:36:00.286Z,2.58
2023-05-21T11:38:30.967Z,2.67
2023-05-21T11:41:04.223Z,2.70
2023-05-21T11:43:34.793Z,2.97
2023-05-21T11:46:07.184Z,2.92
2023-05-21T11:48:38.976Z,3.13
2023-05-21T11:51:08.692Z,3.33
2023-05-21T11:53:39.497Z,2.95
2023-05-21T11:56:09.879Z,3.25
2023-05-21T11:58:43.764Z,3.00
2023-05-21T12:01:22.702Z,2.80
2023-05-21T12:03:58.881Z,3.03
2023-05-21T12:06:28.157Z,2.67
2023-05-21T12:08:58.516Z,2.90
2023-05-21T12:11:33.740Z,2.88
2023-05-21T12:14:03.581Z,3.20
2023-05-21T12:16:32.657Z,2.50
2023-05-21T12:19:00.853Z,2.85
2023-05-21T12:21:29.564Z,2.35
2023-05-21T12:23:57.962Z,2.28
2023-05-21T12:26:26.771Z,2.22
2023-05-21T12:28:55.600Z,2.28
2023-05-21T12:34:02.279Z,2.05
2023-05-21T12:36:34.763Z,2.53
2023-05-21T12:39:03.597Z,2.38
2023-05-21T12:41:31.795Z,2.75
2023-05-21T12:44:00.339Z,2.55
2023-05-21T12:46:29.914Z,3.08
2023-05-21T12:49:01.356Z,2.80
2023-05-21T12:51:39.502Z,2.72
2023-05-21T12:54:14.167Z,2.33
2023-05-21T12:56:51.179Z,3.22
2023-05-21T12:59:22.299Z,3.13
2023-05-21T13:01:54.290Z,2.60
2023-05-21T13:04:22.585Z,2.60
2023-05-21T13:06:50.872Z,2.40
2023-05-21T13:09:36.001Z,3.05
2023-05-21T13:12:06.577Z,2.45
2023-05-21T13:14:36.648Z,2.67
2023-05-21T13:17:12.289Z,2.40
2023-05-21T13:19:40.572Z,2.50
2023-05-21T13:22:11.496Z,2.00
2023-05-21T13:24:41.665Z,2.70
2023-05-21T13:27:10.226Z,2.42
2023-05-21T13:29:38.375Z,2.67
2023-05-21T13:32:07.197Z,2.40
2023-05-21T13:34:36.671Z,2.47
2023-05-21T13:37:04.737Z,1.90
2023-05-21T13:39:32.871Z,2.40
2023-05-21T13:42:01.632Z,2.53
2023-05-21T13:44:29.800Z,2.40
2023-05-21T13:46:58.231Z,2.47
2023-05-21T13:49:26.637Z,2.90
2023-05-21T13:51:58.233Z,2.88
2023-05-21T13:54:26.879Z,2.88
2023-05-21T13:56:55.177Z,3.40
2023-05-21T13:59:23.341Z,3.40
2023-05-21T14:02:09.875Z,3.00
2023-05-21T14:04:39.377Z,3.00
2023-05-21T14:07:09.219Z,3.08
2023-05-21T14:09:39.528Z,2.97
2023-05-21T14:12:08.147Z,2.90
2023-05-21T14:14:36.302Z,3.03
2023-05-21T14:17:21.262Z,3.15
2023-05-21T14:19:56.738Z,3.30
2023-05-21T14:22:26.265Z,3.10
2023-05-21T14:24:54.768Z,3.20
2023-05-21T14:27:22.856Z,2.85
2023-05-21T14:29:50.996Z,2.95
2023-05-21T14:32:19.301Z,3.28
2023-05-21T14:34:51.466Z,2.58
2023-05-21T14:37:19.573Z,3.47
2023-05-21T14:39:53.117Z,3.17
2023-05-21T14:42:21.352Z,3.85
2023-05-21T14:44:49.456Z,3.72
2023-05-21T14:47:17.606Z,3.97
2023-05-21T14:49:45.884Z,4.10
2023-05-21T14:52:13.969Z,4.38
2023-05-21T14:54:42.206Z,4.15
2023-05-21T14:57:11.685Z,4.40
2023-05-21T14:59:39.841Z,3.75
2023-05-21T15:02:09.119Z,4.07
2023-05-21T15:04:37.242Z,4.38
2023-05-21T15:07:05.667Z,4.13
2023-05-21T15:09:33.792Z,3.72
2023-05-21T15:12:01.950Z,4.10
2023-05-21T15:14:31.453Z,4.00
2023-05-21T15:16:59.602Z,3.90
2023-05-21T15:19:27.889Z,3.72
2023-05-21T15:21:56.045Z,4.00
2023-05-21T15:24:24.286Z,3.70
2023-05-21T15:26:52.535Z,3.22
2023-05-21T15:29:26.827Z,3.42
2023-05-21T15:31:56.553Z,3.53
2023-05-21T15:34:24.715Z,3.40
2023-05-21T15:37:07.274Z,3.25
2023-05-21T15:39:35.424Z,3.42
2023-05-21T15:42:03.624Z,3.47
2023-05-21T15:44:31.719Z,3.47
2023-05-21T15:47:01.366Z,3.10
2023-05-21T15:49:29.551Z,3.30
2023-05-21T15:51:58.190Z,3.65
2023-05-21T15:54:26.342Z,3.20
2023-05-21T15:56:54.476Z,3.33
2023-05-21T15:59:22.704Z,3.60
2023-05-21T16:01:50.826Z,3.10
2023-05-21T16:04:21.221Z,3.70
2023-05-21T16:06:50.578Z,3.17
2023-05-21T16:09:18.660Z,3.05
2023-05-21T16:11:48.850Z,3.40
2023-05-21T16:14:16.959Z,3.25
2023-05-21T16:16:45.077Z,3.63
2023-05-21T16:19:13.277Z,3.60
2023-05-21T16:21:42.999Z,3.08
2023-05-21T16:24:11.067Z,3.60
2023-05-21T16:26:39.222Z,3.50
2023-05-21T16:29:07.412Z,5.93
2023-05-21T16:31:35.873Z,4.10
2023-05-21T16:34:04.063Z,5.43
2023-05-21T16:36:32.209Z,5.10
2023-05-21T16:39:01.732Z,4.25
2023-05-21T16:41:29.830Z,3.83
2023-05-21T16:43:57.950Z,4.00
2023-05-21T16:46:26.500Z,4.28
2023-05-21T16:48:54.850Z,4.40
2023-05-21T16:51:23.013Z,4.53
2023-05-21T16:53:51.090Z,4.18
2023-05-21T16:56:22.956Z,3.72
2023-05-21T16:58:52.256Z,3.78
2023-05-21T17:01:21.595Z,3.70
2023-05-21T17:03:56.631Z,3.60
2023-05-21T17:06:26.513Z,3.80
2023-05-21T17:08:55.721Z,3.42
2023-05-21T17:11:25.641Z,4.60
2023-05-21T17:13:53.989Z,3.95
2023-05-21T17:16:22.264Z,4.03
2023-05-21T17:18:59.293Z,3.60
2023-05-21T17:21:34.291Z,3.70
2023-05-21T17:24:09.478Z,5.78
2023-05-21T17:26:49.478Z,4.07
2023-05-21T17:29:17.637Z,4.53
2023-05-21T17:31:47.573Z,7.45
2023-05-21T17:34:16.698Z,5.45
2023-05-21T17:36:45.048Z,3.70
2023-05-21T17:39:21.256Z,3.88
2023-05-21T17:41:53.155Z,3.97
2023-05-21T17:44:21.693Z,4.15
2023-05-21T17:46:52.058Z,3.22
2023-05-21T17:49:21.348Z,3.75
2023-05-21T17:51:49.998Z,3.95
2023-05-21T17:54:25.158Z,3.88
2023-05-21T17:56:56.874Z,4.05
2023-05-21T17:59:25.374Z,3.90
2023-05-21T18:01:53.629Z,4.05
2023-05-21T18:04:22.889Z,4.20
2023-05-21T18:06:51.546Z,3.78
2023-05-21T18:09:19.830Z,3.88
2023-05-21T18:11:53.976Z,4.13
2023-05-21T18:14:23.499Z,3.42
2023-05-21T18:16:53.234Z,3.90
2023-05-21T18:19:21.646Z,4.32
2023-05-21T18:21:50.152Z,4.40
2023-05-21T18:24:19.128Z,4.93
2023-05-21T18:27:05.028Z,4.40
2023-05-21T18:29:37.954Z,3.80
2023-05-21T18:32:06.965Z,4.63
2023-05-21T18:34:37.278Z,3.88
2023-05-21T18:37:06.793Z,3.72
2023-05-21T18:39:45.894Z,4.85
2023-05-21T18:42:17.102Z,3.90
2023-05-21T18:45:10.197Z,4.28
2023-05-21T18:47:40.551Z,4.85
2023-05-21T18:50:15.754Z,5.43
2023-05-21T18:52:45.248Z,4.38
2023-05-21T18:55:21.489Z,4.85
2023-05-21T18:57:49.650Z,4.18
2023-05-21T19:00:20.994Z,4.00
2023-05-21T19:02:49.239Z,5.25
2023-05-21T19:05:30.898Z,4.07
2023-05-21T19:07:59.685Z,6.50
2023-05-21T19:10:27.917Z,6.28
2023-05-21T19:12:56.072Z,4.82
2023-05-21T19:15:25.626Z,4.60
2023-05-21T19:17:53.951Z,4.47
2023-05-21T19:20:33.149Z,4.32
2023-05-21T19:23:01.355Z,4.47
2023-05-21T19:25:31.494Z,4.13
2023-05-21T19:28:00.783Z,4.43
2023-05-21T19:30:30.321Z,5.10
2023-05-21T19:33:00.646Z,4.85
2023-05-21T19:35:47.946Z,4.63
2023-05-21T19:38:19.262Z,4.10
2023-05-21T19:40:47.458Z,4.60
2023-05-21T19:43:15.567Z,4.53
2023-05-21T19:45:45.611Z,3.88
2023-05-21T19:48:17.034Z,5.35
2023-05-21T19:50:45.772Z,4.43
2023-05-21T19:53:13.891Z,4.80
2023-05-21T19:55:42.141Z,4.30
2023-05-21T19:58:26.862Z,3.97
2023-05-21T20:00:59.403Z,3.90
2023-05-21T20:03:35.985Z,3.95
2023-05-21T20:06:05.130Z,4.28
2023-05-21T20:08:34.369Z,4.18
2023-05-21T20:11:02.523Z,3.95
2023-05-21T20:13:30.708Z,4.03
2023-05-21T20:16:00.372Z,4.63
2023-05-21T20:18:29.797Z,3.72
2023-05-21T20:21:00.589Z,3.67
2023-05-21T20:23:34.937Z,4.53
2023-05-21T20:26:03.277Z,4.07
2023-05-21T20:28:32.577Z,3.95
2023-05-21T20:31:02.724Z,4.03
2023-05-21T20:33:34.038Z,4.82
2023-05-21T20:36:06.233Z,4.65
2023-05-21T20:38:36.985Z,4.50
2023-05-21T20:41:06.149Z,4.47
2023-05-21T20:43:47.680Z,3.47
2023-05-21T20:46:21.493Z,3.88
2023-05-21T20:48:49.652Z,3.38
2023-05-21T20:51:19.914Z,3.20
2023-05-21T20:53:50.493Z,3.10
2023-05-21T20:56:29.746Z,3.33
2023-05-21T20:59:04.052Z,3.20
2023-05-21T21:01:42.974Z,3.10
2023-05-21T21:04:24.629Z,3.75
2023-05-21T21:06:53.212Z,3.80
2023-05-21T21:09:22.347Z,3.33
2023-05-21T21:11:53.036Z,3.38
2023-05-21T21:14:21.223Z,3.63
2023-05-21T21:16:51.813Z,4.18
2023-05-21T21:19:21.138Z,3.33
2023-05-21T21:21:49.428Z,3.58
2023-05-21T21:24:17.622Z,3.90
2023-05-21T21:26:45.800Z,3.65
2023-05-21T21:29:17.156Z,3.35
2023-05-21T21:31:58.996Z,3.13
2023-05-21T21:34:39.400Z,3.95
2023-05-21T21:37:10.089Z,3.60
2023-05-21T21:39:38.193Z,3.80
2023-05-21T21:42:06.796Z,3.40
2023-05-21T21:44:34.948Z,4.10
2023-05-21T21:47:04.478Z,3.30
2023-05-21T21:49:33.007Z,3.35
2023-05-21T21:52:01.420Z,3.78
2023-05-21T21:54:29.771Z,3.53
2023-05-21T21:56:57.918Z,4.10
2023-05-21T21:59:26.248Z,3.42
2023-05-21T22:01:57.522Z,3.67
2023-05-21T22:04:41.083Z,4.03
2023-05-21T22:07:18.238Z,3.90
2023-05-21T22:09:46.975Z,4.30
2023-05-21T22:12:15.092Z,4.60
2023-05-21T22:14:43.776Z,4.28
2023-05-21T22:17:12.024Z,4.40
2023-05-21T22:19:42.932Z,4.43
2023-05-21T22:22:12.137Z,5.03
2023-05-21T22:24:40.233Z,4.30
2023-05-21T22:27:08.830Z,4.20
2023-05-21T22:29:37.160Z,4.68
2023-05-21T22:32:06.858Z,4.57
2023-05-21T22:34:35.348Z,4.85
2023-05-21T22:37:08.896Z,4.40
2023-05-21T22:39:37.362Z,4.28
2023-05-21T22:42:06.198Z,4.38
2023-05-21T22:44:34.291Z,4.50
2023-05-21T22:47:03.976Z,4.40
2023-05-21T22:49:32.805Z,4.20
2023-05-21T22:52:05.636Z,4.22
2023-05-21T22:54:39.183Z,3.85
2023-05-21T22:57:32.892Z,4.22
2023-05-21T23:00:03.743Z,3.83
2023-05-21T23:02:33.101Z,4.20
2023-05-21T23:05:02.411Z,4.18
2023-05-21T23:07:37.479Z,4.32
2023-05-21T23:10:08.013Z,4.45
2023-05-21T23:12:38.569Z,4.25
2023-05-21T23:15:10.214Z,4.20
2023-05-21T23:17:47.726Z,4.47
2023-05-21T23:20:27.799Z,4.15
2023-05-21T23:22:56.005Z,3.95
2023-05-21T23:25:25.480Z,4.00
2023-05-21T23:27:53.567Z,3.50
2023-05-21T23:30:26.953Z,4.38
2023-05-21T23:32:55.108Z,4.38
2023-05-21T23:35:23.308Z,4.18
2023-05-21T23:37:58.434Z,4.30
2023-05-21T23:40:27.956Z,3.92
2023-05-21T23:42:56.484Z,3.97
2023-05-21T23:45:33.967Z,4.05
2023-05-21T23:48:02.206Z,3.90
2023-05-21T23:50:30.336Z,4.30
2023-05-21T23:52:59.321Z,4.18
2023-05-21T23:55:28.841Z,4.07
2023-05-21T23:57:57.300Z,4.43
